Index of /observatory/weather/Observatory_weather

[ICO]NameLast modifiedSizeDescription

[DIR]Parent Directory  -  
[IMG]10MinAvgWindSpeed.gif20-Nov-2018 18:10 4.3K 
[TXT]2015.txt13-Mar-2018 12:42 11M 
[TXT]201705.txt21-Feb-2018 15:10 1.1M 
[TXT]201706.txt21-Feb-2018 15:10 351K 
[TXT]201707.txt21-Feb-2018 15:01 183K 
[IMG]AirDensity.gif20-Nov-2018 18:10 4.9K 
[IMG]Barometer.gif20-Nov-2018 18:10 5.8K 
[IMG]BarometerHistory.gif20-Nov-2018 18:10 9.7K 
[TXT]Current_Conditions.htm20-Nov-2018 18:10 2.7K 
[TXT]Current_Vantage_Pro.htm20-Nov-2018 18:10 13K 
[IMG]DCAMImage.jpg24-Jul-2018 13:16 249K 
[IMG]DewPoint.gif20-Nov-2018 18:10 5.4K 
[IMG]DewPointHistory.gif20-Nov-2018 18:10 8.7K 
[IMG]EMC.gif20-Nov-2018 18:10 4.2K 
[IMG]HeatIndex.gif20-Nov-2018 18:10 5.3K 
[IMG]HeatIndexHistory.gif20-Nov-2018 18:10 9.8K 
[IMG]HiWindSpeedHistory.gif20-Nov-2018 18:10 14K 
[IMG]InsideDewPoint.gif20-Nov-2018 18:10 4.4K 
[IMG]InsideDewPointHistory.gif20-Nov-2018 18:10 9.6K 
[IMG]InsideHeatIndex.gif20-Nov-2018 18:10 4.4K 
[IMG]InsideHeatIndexHistory.gif20-Nov-2018 18:10 10K 
[IMG]InsideHumidity.gif20-Nov-2018 18:10 5.5K 
[IMG]InsideHumidityHistory.gif20-Nov-2018 18:10 10K 
[IMG]InsideTemp.gif20-Nov-2018 18:10 5.4K 
[IMG]InsideTempHistory.gif20-Nov-2018 18:10 9.6K 
[IMG]MonthlyRain.gif20-Nov-2018 18:10 4.4K 
[TXT]Monthly_Vantage_Pro.htm20-Nov-2018 18:10 11K 
[TXT]Observatory_weather.htm20-Nov-2018 18:10 18K 
[IMG]OutsideHumidity.gif20-Nov-2018 18:10 5.4K 
[IMG]OutsideHumidityHistory.gif20-Nov-2018 18:10 8.4K 
[IMG]OutsideTemp.gif20-Nov-2018 18:10 5.4K 
[IMG]OutsideTempHistory.gif20-Nov-2018 18:10 10K 
[IMG]Rain.gif20-Nov-2018 18:10 4.2K 
[IMG]RainHistory.gif20-Nov-2018 18:10 9.6K 
[IMG]RainRate.gif20-Nov-2018 18:10 5.8K 
[IMG]RainRateHistory.gif20-Nov-2018 18:10 8.8K 
[IMG]RainStorm.gif20-Nov-2018 18:10 4.2K 
[IMG]ReceptionHistory.gif20-Nov-2018 18:10 16K 
[IMG]SchPhyAst_colour.jpg12-Sep-2013 17:33 24K 
[IMG]THW.gif20-Nov-2018 18:10 4.4K 
[TXT]Tag-List.htm20-Nov-2018 18:10 8.4K 
[IMG]WindChill.gif20-Nov-2018 18:10 4.5K 
[IMG]WindChillHistory.gif20-Nov-2018 18:10 9.9K 
[IMG]WindDirection.gif20-Nov-2018 18:10 4.6K 
[IMG]WindDirectionHistory.gif20-Nov-2018 18:10 13K 
[IMG]WindSpeed.gif20-Nov-2018 18:10 4.2K 
[IMG]WindSpeedHistory.gif20-Nov-2018 18:10 12K 
[IMG]YearlyRain.gif20-Nov-2018 18:10 4.5K 
[DIR]archive/21-Feb-2018 15:20 -  
[TXT]data.htm20-Nov-2018 18:10 346  
[VID]movie.avi13-Jul-2018 00:01 6.2M 
[IMG]obs_rollover.jpg29-Aug-2018 13:30 343K 
[   ]obs_rollover.xcf29-Aug-2018 13:34 4.5M 
[IMG]quicklook_data_0.1h.png14-Dec-2017 17:15 38K 
[IMG]quicklook_data_1h.png14-Dec-2017 17:08 39K 
[IMG]quicklook_data_2h.png20-Nov-2018 18:12 210K 
[IMG]quicklook_data_12h.png20-Nov-2018 18:12 180K 
[IMG]quicklook_data_48h.png20-Nov-2018 18:12 178K 
[IMG]quicklook_data_96h.png20-Nov-2018 18:12 178K 
[TXT]radiation.txt24-Aug-2013 15:40 1.6M 
[TXT]radiation2012.txt20-Nov-2018 18:10 221K 
[DIR]reports/14-Feb-2018 13:55 -  
[IMG]test.png24-Nov-2017 13:58 77K 

Apache/2.2.14 (Ubuntu) Server at www.astro.gla.ac.uk Port 80